sensor_id;sensor_type;location;lat;lon;timestamp;pressure;altitude;pressure_sealevel;temperature;humidity
52489;BME280;38399;52.236;104.280;2022-08-14T00:02:38;95363.41;;;20.86;61.06
52489;BME280;38399;52.236;104.280;2022-08-14T00:05:08;95365.94;;;21.17;60.26
52489;BME280;38399;52.236;104.280;2022-08-14T00:07:34;95359.41;;;21.30;59.87
52489;BME280;38399;52.236;104.280;2022-08-14T00:10:05;95373.34;;;21.43;59.79
52489;BME280;38399;52.236;104.280;2022-08-14T00:12:34;95375.72;;;21.53;59.59
52489;BME280;38399;52.236;104.280;2022-08-14T00:15:12;95377.16;;;21.68;59.25
52489;BME280;38399;52.236;104.280;2022-08-14T00:17:39;95373.56;;;21.68;59.30
52489;BME280;38399;52.236;104.280;2022-08-14T00:20:07;95377.50;;;21.58;59.04
52489;BME280;38399;52.236;104.280;2022-08-14T00:22:34;95370.34;;;21.57;59.45
52489;BME280;38399;52.236;104.280;2022-08-14T00:25:00;95379.09;;;21.68;59.11
52489;BME280;38399;52.236;104.280;2022-08-14T00:27:26;95371.56;;;21.77;58.66
52489;BME280;38399;52.236;104.280;2022-08-14T00:29:53;95383.22;;;21.91;58.18
52489;BME280;38399;52.236;104.280;2022-08-14T00:32:19;95386.13;;;22.16;57.90
52489;BME280;38399;52.236;104.280;2022-08-14T00:34:45;95383.78;;;22.57;56.93
52489;BME280;38399;52.236;104.280;2022-08-14T00:37:11;95382.63;;;23.13;55.91
52489;BME280;38399;52.236;104.280;2022-08-14T00:39:38;95382.63;;;23.84;54.42
52489;BME280;38399;52.236;104.280;2022-08-14T00:42:05;95388.84;;;24.43;52.99
52489;BME280;38399;52.236;104.280;2022-08-14T00:44:31;95379.56;;;24.76;52.41
52489;BME280;38399;52.236;104.280;2022-08-14T00:46:57;95387.59;;;24.93;52.15
52489;BME280;38399;52.236;104.280;2022-08-14T00:49:24;95388.19;;;25.75;50.09
52489;BME280;38399;52.236;104.280;2022-08-14T00:51:50;95386.28;;;26.28;49.21
52489;BME280;38399;52.236;104.280;2022-08-14T00:54:16;95386.47;;;27.72;48.35
52489;BME280;38399;52.236;104.280;2022-08-14T00:56:45;95387.09;;;28.93;44.51
52489;BME280;38399;52.236;104.280;2022-08-14T00:59:11;95386.38;;;29.33;43.48
52489;BME280;38399;52.236;104.280;2022-08-14T01:01:38;95388.91;;;29.12;43.63
52489;BME280;38399;52.236;104.280;2022-08-14T01:04:05;95384.69;;;28.64;43.84
52489;BME280;38399;52.236;104.280;2022-08-14T01:06:31;95379.44;;;28.05;45.08
52489;BME280;38399;52.236;104.280;2022-08-14T01:08:59;95385.47;;;28.07;45.04
52489;BME280;38399;52.236;104.280;2022-08-14T01:11:26;95385.03;;;27.82;45.41
52489;BME280;38399;52.236;104.280;2022-08-14T01:13:53;95379.84;;;28.31;44.45
52489;BME280;38399;52.236;104.280;2022-08-14T01:16:25;95380.41;;;29.01;42.99
52489;BME280;38399;52.236;104.280;2022-08-14T01:18:52;95368.44;;;29.00;42.77
52489;BME280;38399;52.236;104.280;2022-08-14T01:21:38;95376.88;;;29.04;42.60
52489;BME280;38399;52.236;104.280;2022-08-14T01:24:06;95376.66;;;29.99;41.40
52489;BME280;38399;52.236;104.280;2022-08-14T01:26:34;95375.97;;;32.33;38.26
52489;BME280;38399;52.236;104.280;2022-08-14T01:29:03;95380.50;;;34.50;34.79
52489;BME280;38399;52.236;104.280;2022-08-14T01:31:32;95381.44;;;36.29;32.00
52489;BME280;38399;52.236;104.280;2022-08-14T01:34:01;95371.47;;;37.69;30.39
52489;BME280;38399;52.236;104.280;2022-08-14T01:36:29;95374.84;;;38.80;29.39
52489;BME280;38399;52.236;104.280;2022-08-14T01:39:14;95380.44;;;40.07;27.14
52489;BME280;38399;52.236;104.280;2022-08-14T01:41:44;95369.13;;;41.26;26.23
52489;BME280;38399;52.236;104.280;2022-08-14T01:44:22;95367.88;;;42.21;25.50
52489;BME280;38399;52.236;104.280;2022-08-14T01:46:51;95363.84;;;42.69;24.96
52489;BME280;38399;52.236;104.280;2022-08-14T01:49:19;95374.19;;;43.03;23.93
52489;BME280;38399;52.236;104.280;2022-08-14T01:51:47;95370.81;;;43.33;23.98
52489;BME280;38399;52.236;104.280;2022-08-14T01:54:15;95364.47;;;43.47;23.44
52489;BME280;38399;52.236;104.280;2022-08-14T01:56:51;95372.09;;;43.60;23.13
52489;BME280;38399;52.236;104.280;2022-08-14T01:59:26;95364.31;;;44.03;22.47
52489;BME280;38399;52.236;104.280;2022-08-14T02:01:56;95364.44;;;44.42;22.44
52489;BME280;38399;52.236;104.280;2022-08-14T02:04:26;95350.25;;;44.24;22.47
52489;BME280;38399;52.236;104.280;2022-08-14T02:06:54;95353.53;;;44.07;22.42
52489;BME280;38399;52.236;104.280;2022-08-14T02:09:20;95361.59;;;44.09;22.35
52489;BME280;38399;52.236;104.280;2022-08-14T02:11:49;95354.41;;;44.47;22.04
52489;BME280;38399;52.236;104.280;2022-08-14T02:14:16;95360.50;;;44.64;21.71
52489;BME280;38399;52.236;104.280;2022-08-14T02:16:46;95358.88;;;44.14;21.57
52489;BME280;38399;52.236;104.280;2022-08-14T02:19:20;95360.00;;;44.08;21.47
52489;BME280;38399;52.236;104.280;2022-08-14T02:21:49;95357.91;;;44.18;21.68
52489;BME280;38399;52.236;104.280;2022-08-14T02:24:18;95360.28;;;44.19;21.59
52489;BME280;38399;52.236;104.280;2022-08-14T02:26:49;95355.00;;;43.93;21.66
52489;BME280;38399;52.236;104.280;2022-08-14T02:29:19;95357.28;;;43.71;21.98
52489;BME280;38399;52.236;104.280;2022-08-14T02:31:49;95352.47;;;43.86;21.91
52489;BME280;38399;52.236;104.280;2022-08-14T02:34:29;95365.72;;;43.56;21.55
52489;BME280;38399;52.236;104.280;2022-08-14T02:37:05;95359.50;;;43.66;21.08
52489;BME280;38399;52.236;104.280;2022-08-14T02:39:39;95360.69;;;43.93;20.83
52489;BME280;38399;52.236;104.280;2022-08-14T02:42:11;95360.50;;;44.40;20.64
52489;BME280;38399;52.236;104.280;2022-08-14T02:44:39;95356.41;;;43.98;20.81
52489;BME280;38399;52.236;104.280;2022-08-14T02:47:06;95346.03;;;43.76;21.18
52489;BME280;38399;52.236;104.280;2022-08-14T02:49:34;95349.97;;;43.79;21.48
52489;BME280;38399;52.236;104.280;2022-08-14T02:52:01;95351.56;;;43.80;21.36
52489;BME280;38399;52.236;104.280;2022-08-14T02:54:28;95358.13;;;44.63;20.50
52489;BME280;38399;52.236;104.280;2022-08-14T02:56:56;95352.41;;;45.41;19.48
52489;BME280;38399;52.236;104.280;2022-08-14T02:59:24;95362.06;;;45.59;19.53
52489;BME280;38399;52.236;104.280;2022-08-14T03:01:53;95350.81;;;45.55;19.36
52489;BME280;38399;52.236;104.280;2022-08-14T03:04:19;95351.81;;;45.67;19.59
52489;BME280;38399;52.236;104.280;2022-08-14T03:06:46;95343.56;;;46.40;18.83
52489;BME280;38399;52.236;104.280;2022-08-14T03:09:13;95344.50;;;47.14;18.29
52489;BME280;38399;52.236;104.280;2022-08-14T03:11:40;95343.94;;;47.36;17.84
52489;BME280;38399;52.236;104.280;2022-08-14T03:14:07;95341.53;;;47.08;17.88
52489;BME280;38399;52.236;104.280;2022-08-14T03:16:38;95343.16;;;46.89;17.71
52489;BME280;38399;52.236;104.280;2022-08-14T03:19:06;95333.31;;;47.16;17.58
52489;BME280;38399;52.236;104.280;2022-08-14T03:21:33;95336.13;;;46.90;17.87
52489;BME280;38399;52.236;104.280;2022-08-14T03:24:00;95335.13;;;46.93;17.46
52489;BME280;38399;52.236;104.280;2022-08-14T03:26:44;95333.91;;;47.84;16.42
52489;BME280;38399;52.236;104.280;2022-08-14T03:29:13;95335.13;;;49.02;16.14
52489;BME280;38399;52.236;104.280;2022-08-14T03:31:41;95336.81;;;49.60;15.72
52489;BME280;38399;52.236;104.280;2022-08-14T03:34:09;95326.34;;;49.91;15.58
52489;BME280;38399;52.236;104.280;2022-08-14T03:36:37;95330.44;;;50.41;15.35
52489;BME280;38399;52.236;104.280;2022-08-14T03:39:07;95326.75;;;50.64;15.16
52489;BME280;38399;52.236;104.280;2022-08-14T03:41:33;95320.25;;;51.05;14.73
52489;BME280;38399;52.236;104.280;2022-08-14T03:44:02;95315.44;;;51.25;14.75
52489;BME280;38399;52.236;104.280;2022-08-14T03:46:32;95312.31;;;51.59;14.74
52489;BME280;38399;52.236;104.280;2022-08-14T03:48:58;95310.41;;;52.28;14.05
52489;BME280;38399;52.236;104.280;2022-08-14T03:51:27;95309.59;;;53.34;13.94
52489;BME280;38399;52.236;104.280;2022-08-14T03:53:59;95305.84;;;53.40;14.14
52489;BME280;38399;52.236;104.280;2022-08-14T03:56:26;95305.13;;;52.76;14.23
52489;BME280;38399;52.236;104.280;2022-08-14T03:58:57;95302.41;;;51.79;14.53
52489;BME280;38399;52.236;104.280;2022-08-14T04:01:25;95298.44;;;51.57;14.52
52489;BME280;38399;52.236;104.280;2022-08-14T04:03:54;95305.53;;;51.87;14.14
52489;BME280;38399;52.236;104.280;2022-08-14T04:06:23;95304.19;;;52.43;13.98
52489;BME280;38399;52.236;104.280;2022-08-14T04:08:50;95297.97;;;52.58;14.05
52489;BME280;38399;52.236;104.280;2022-08-14T04:11:17;95292.50;;;51.38;14.82
52489;BME280;38399;52.236;104.280;2022-08-14T04:13:44;95299.81;;;50.38;15.20
52489;BME280;38399;52.236;104.280;2022-08-14T04:16:16;95298.56;;;49.99;15.35
52489;BME280;38399;52.236;104.280;2022-08-14T04:18:44;95293.50;;;50.40;15.25
52489;BME280;38399;52.236;104.280;2022-08-14T04:21:13;95286.50;;;51.36;14.82
52489;BME280;38399;52.236;104.280;2022-08-14T04:23:39;95283.53;;;52.33;14.21
52489;BME280;38399;52.236;104.280;2022-08-14T04:26:11;95273.97;;;52.63;14.05
52489;BME280;38399;52.236;104.280;2022-08-14T04:28:41;95268.34;;;52.52;14.41
52489;BME280;38399;52.236;104.280;2022-08-14T04:31:08;95272.44;;;51.57;14.42
52489;BME280;38399;52.236;104.280;2022-08-14T04:33:34;95265.72;;;51.43;14.81
52489;BME280;38399;52.236;104.280;2022-08-14T04:36:02;95266.28;;;51.72;14.39
52489;BME280;38399;52.236;104.280;2022-08-14T04:38:28;95258.59;;;51.50;14.54
52489;BME280;38399;52.236;104.280;2022-08-14T04:41:13;95262.72;;;51.24;14.71
52489;BME280;38399;52.236;104.280;2022-08-14T04:43:57;95262.22;;;49.79;15.30
52489;BME280;38399;52.236;104.280;2022-08-14T04:46:24;95253.44;;;48.66;15.79
52489;BME280;38399;52.236;104.280;2022-08-14T04:48:53;95259.69;;;47.13;16.70
52489;BME280;38399;52.236;104.280;2022-08-14T04:51:21;95252.47;;;44.29;18.79
52489;BME280;38399;52.236;104.280;2022-08-14T04:53:51;95241.09;;;41.89;20.73
52489;BME280;38399;52.236;104.280;2022-08-14T04:56:20;95240.97;;;39.96;22.13
52489;BME280;38399;52.236;104.280;2022-08-14T04:58:48;95230.16;;;38.45;24.01
52489;BME280;38399;52.236;104.280;2022-08-14T05:01:15;95232.13;;;37.16;24.90
52489;BME280;38399;52.236;104.280;2022-08-14T05:03:42;95239.00;;;35.94;26.16
52489;BME280;38399;52.236;104.280;2022-08-14T05:06:10;95227.22;;;34.97;27.54
52489;BME280;38399;52.236;104.280;2022-08-14T05:08:37;95226.03;;;34.25;28.49
52489;BME280;38399;52.236;104.280;2022-08-14T05:11:05;95231.00;;;33.64;29.22
52489;BME280;38399;52.236;104.280;2022-08-14T05:13:34;95216.22;;;33.04;29.75
52489;BME280;38399;52.236;104.280;2022-08-14T05:16:03;95227.25;;;32.55;30.77
52489;BME280;38399;52.236;104.280;2022-08-14T05:18:32;95221.34;;;32.20;30.95
52489;BME280;38399;52.236;104.280;2022-08-14T05:21:01;95229.81;;;32.09;30.74
52489;BME280;38399;52.236;104.280;2022-08-14T05:23:30;95217.03;;;31.83;31.79
52489;BME280;38399;52.236;104.280;2022-08-14T05:25:58;95229.44;;;31.53;31.74
52489;BME280;38399;52.236;104.280;2022-08-14T05:28:30;95218.25;;;31.20;32.04
52489;BME280;38399;52.236;104.280;2022-08-14T05:31:01;95230.56;;;30.98;32.22
52489;BME280;38399;52.236;104.280;2022-08-14T05:33:29;95213.75;;;30.80;32.80
52489;BME280;38399;52.236;104.280;2022-08-14T05:35:58;95221.31;;;30.65;32.83
52489;BME280;38399;52.236;104.280;2022-08-14T05:38:28;95215.63;;;30.47;33.03
52489;BME280;38399;52.236;104.280;2022-08-14T05:40:59;95217.53;;;30.24;33.16
52489;BME280;38399;52.236;104.280;2022-08-14T05:43:26;95210.22;;;30.02;33.17
52489;BME280;38399;52.236;104.280;2022-08-14T05:45:52;95200.06;;;29.79;33.41
52489;BME280;38399;52.236;104.280;2022-08-14T05:48:18;95202.81;;;29.68;33.16
52489;BME280;38399;52.236;104.280;2022-08-14T05:50:45;95205.28;;;29.77;32.81
52489;BME280;38399;52.236;104.280;2022-08-14T05:53:11;95198.88;;;29.80;32.34
52489;BME280;38399;52.236;104.280;2022-08-14T05:55:37;95200.50;;;29.81;32.89
52489;BME280;38399;52.236;104.280;2022-08-14T05:58:06;95197.78;;;29.92;32.57
52489;BME280;38399;52.236;104.280;2022-08-14T06:00:38;95194.16;;;29.91;32.37
52489;BME280;38399;52.236;104.280;2022-08-14T06:03:10;95200.91;;;29.79;32.72
52489;BME280;38399;52.236;104.280;2022-08-14T06:05:40;95192.06;;;29.74;32.73
52489;BME280;38399;52.236;104.280;2022-08-14T06:08:27;95188.06;;;29.68;32.54
52489;BME280;38399;52.236;104.280;2022-08-14T06:10:57;95187.47;;;29.40;32.80
52489;BME280;38399;52.236;104.280;2022-08-14T06:13:39;95185.22;;;29.15;33.48
52489;BME280;38399;52.236;104.280;2022-08-14T06:16:07;95181.91;;;28.99;33.66
52489;BME280;38399;52.236;104.280;2022-08-14T06:18:33;95182.09;;;28.76;33.96
52489;BME280;38399;52.236;104.280;2022-08-14T06:21:04;95183.50;;;28.62;34.25
52489;BME280;38399;52.236;104.280;2022-08-14T06:23:30;95180.63;;;28.51;34.30
52489;BME280;38399;52.236;104.280;2022-08-14T06:25:56;95175.69;;;28.37;34.94
52489;BME280;38399;52.236;104.280;2022-08-14T06:28:23;95171.72;;;28.38;34.50
52489;BME280;38399;52.236;104.280;2022-08-14T06:30:51;95165.59;;;28.25;35.52
52489;BME280;38399;52.236;104.280;2022-08-14T06:33:19;95161.25;;;28.28;35.47
52489;BME280;38399;52.236;104.280;2022-08-14T06:35:46;95165.38;;;28.41;35.37
52489;BME280;38399;52.236;104.280;2022-08-14T06:38:15;95164.31;;;28.53;35.48
52489;BME280;38399;52.236;104.280;2022-08-14T06:40:42;95163.28;;;28.69;35.20
52489;BME280;38399;52.236;104.280;2022-08-14T06:43:10;95161.38;;;28.77;35.09
52489;BME280;38399;52.236;104.280;2022-08-14T06:45:39;95169.78;;;28.80;35.20
52489;BME280;38399;52.236;104.280;2022-08-14T06:48:13;95153.47;;;28.82;35.15
52489;BME280;38399;52.236;104.280;2022-08-14T06:50:42;95157.06;;;28.83;35.05
52489;BME280;38399;52.236;104.280;2022-08-14T06:53:09;95151.91;;;28.85;34.95
52489;BME280;38399;52.236;104.280;2022-08-14T06:55:36;95145.63;;;28.95;35.53
52489;BME280;38399;52.236;104.280;2022-08-14T06:58:03;95136.84;;;28.97;35.34
52489;BME280;38399;52.236;104.280;2022-08-14T07:00:29;95138.47;;;29.01;34.83
52489;BME280;38399;52.236;104.280;2022-08-14T07:02:55;95141.53;;;28.85;35.96
52489;BME280;38399;52.236;104.280;2022-08-14T07:05:40;95132.97;;;28.64;36.15
52489;BME280;38399;52.236;104.280;2022-08-14T07:08:16;95135.25;;;28.54;36.65
52489;BME280;38399;52.236;104.280;2022-08-14T07:10:49;95134.00;;;28.52;37.17
52489;BME280;38399;52.236;104.280;2022-08-14T07:13:17;95133.69;;;28.57;36.94
52489;BME280;38399;52.236;104.280;2022-08-14T07:15:49;95130.19;;;28.67;36.97
52489;BME280;38399;52.236;104.280;2022-08-14T07:18:24;95127.50;;;28.75;37.18
52489;BME280;38399;52.236;104.280;2022-08-14T07:20:51;95126.31;;;28.76;37.06
52489;BME280;38399;52.236;104.280;2022-08-14T07:23:19;95126.75;;;28.78;37.00
52489;BME280;38399;52.236;104.280;2022-08-14T07:25:46;95132.03;;;28.90;36.94
52489;BME280;38399;52.236;104.280;2022-08-14T07:28:15;95132.50;;;28.99;37.28
52489;BME280;38399;52.236;104.280;2022-08-14T07:30:42;95132.59;;;29.10;37.34
52489;BME280;38399;52.236;104.280;2022-08-14T07:33:09;95125.41;;;29.13;37.14
52489;BME280;38399;52.236;104.280;2022-08-14T07:35:38;95131.75;;;29.06;37.12
52489;BME280;38399;52.236;104.280;2022-08-14T07:38:05;95129.31;;;29.01;37.69
52489;BME280;38399;52.236;104.280;2022-08-14T07:40:33;95118.63;;;29.07;37.52
52489;BME280;38399;52.236;104.280;2022-08-14T07:43:02;95124.16;;;29.03;37.52
52489;BME280;38399;52.236;104.280;2022-08-14T07:45:28;95119.38;;;29.03;37.65
52489;BME280;38399;52.236;104.280;2022-08-14T07:47:54;95121.09;;;29.19;37.19
52489;BME280;38399;52.236;104.280;2022-08-14T07:50:23;95115.44;;;29.08;37.44
52489;BME280;38399;52.236;104.280;2022-08-14T07:52:49;95117.63;;;28.84;38.33
52489;BME280;38399;52.236;104.280;2022-08-14T07:55:16;95118.81;;;28.80;38.40
52489;BME280;38399;52.236;104.280;2022-08-14T07:57:45;95113.03;;;28.62;38.41
52489;BME280;38399;52.236;104.280;2022-08-14T08:00:15;95115.72;;;28.51;38.80
52489;BME280;38399;52.236;104.280;2022-08-14T08:02:44;95118.69;;;28.31;39.51
52489;BME280;38399;52.236;104.280;2022-08-14T08:05:12;95119.31;;;28.17;39.75
52489;BME280;38399;52.236;104.280;2022-08-14T08:07:41;95108.78;;;28.03;39.91
52489;BME280;38399;52.236;104.280;2022-08-14T08:10:15;95104.63;;;27.86;40.31
52489;BME280;38399;52.236;104.280;2022-08-14T08:13:07;95101.38;;;27.80;40.67
52489;BME280;38399;52.236;104.280;2022-08-14T08:15:38;95108.81;;;27.73;40.66
52489;BME280;38399;52.236;104.280;2022-08-14T08:18:07;95102.69;;;27.60;41.00
52489;BME280;38399;52.236;104.280;2022-08-14T08:20:40;95091.56;;;27.60;41.19
52489;BME280;38399;52.236;104.280;2022-08-14T08:23:07;95098.47;;;27.73;41.04
52489;BME280;38399;52.236;104.280;2022-08-14T08:25:37;95098.06;;;27.71;41.68
52489;BME280;38399;52.236;104.280;2022-08-14T08:28:13;95100.44;;;27.69;42.15
52489;BME280;38399;52.236;104.280;2022-08-14T08:30:46;95099.72;;;27.76;41.96
52489;BME280;38399;52.236;104.280;2022-08-14T08:33:12;95102.06;;;27.74;42.09
52489;BME280;38399;52.236;104.280;2022-08-14T08:35:41;95094.19;;;27.79;42.09
52489;BME280;38399;52.236;104.280;2022-08-14T08:38:11;95103.81;;;27.86;42.52
52489;BME280;38399;52.236;104.280;2022-08-14T08:40:47;95095.88;;;27.88;42.45
52489;BME280;38399;52.236;104.280;2022-08-14T08:43:29;95098.03;;;28.02;41.90
52489;BME280;38399;52.236;104.280;2022-08-14T08:46:02;95098.66;;;28.22;41.68
52489;BME280;38399;52.236;104.280;2022-08-14T08:48:45;95094.94;;;28.45;41.24
52489;BME280;38399;52.236;104.280;2022-08-14T08:51:26;95088.66;;;28.55;40.86
52489;BME280;38399;52.236;104.280;2022-08-14T08:54:13;95090.63;;;28.51;39.82
52489;BME280;38399;52.236;104.280;2022-08-14T08:56:50;95088.09;;;28.38;40.06
52489;BME280;38399;52.236;104.280;2022-08-14T08:59:27;95098.16;;;28.13;40.15
52489;BME280;38399;52.236;104.280;2022-08-14T09:01:59;95088.06;;;28.01;40.58
52489;BME280;38399;52.236;104.280;2022-08-14T09:04:27;95085.88;;;27.83;40.75
52489;BME280;38399;52.236;104.280;2022-08-14T09:06:55;95084.69;;;27.54;41.18
52489;BME280;38399;52.236;104.280;2022-08-14T09:09:24;95091.97;;;27.35;41.67
52489;BME280;38399;52.236;104.280;2022-08-14T09:11:51;95089.44;;;27.23;41.65
52489;BME280;38399;52.236;104.280;2022-08-14T09:14:22;95089.22;;;27.08;42.06
52489;BME280;38399;52.236;104.280;2022-08-14T09:16:49;95094.22;;;26.99;42.43
52489;BME280;38399;52.236;104.280;2022-08-14T09:19:16;95092.81;;;26.85;42.90
52489;BME280;38399;52.236;104.280;2022-08-14T09:21:43;95093.88;;;26.77;43.22
52489;BME280;38399;52.236;104.280;2022-08-14T09:24:12;95086.91;;;26.64;42.98
52489;BME280;38399;52.236;104.280;2022-08-14T09:26:38;95087.03;;;26.48;43.22
52489;BME280;38399;52.236;104.280;2022-08-14T09:29:07;95094.41;;;26.40;43.54
52489;BME280;38399;52.236;104.280;2022-08-14T09:31:36;95086.69;;;26.30;43.57
52489;BME280;38399;52.236;104.280;2022-08-14T09:34:13;95095.19;;;26.17;43.80
52489;BME280;38399;52.236;104.280;2022-08-14T09:52:55;95092.28;;;25.90;44.90
52489;BME280;38399;52.236;104.280;2022-08-14T09:55:25;95089.06;;;25.88;45.07
52489;BME280;38399;52.236;104.280;2022-08-14T09:57:52;95102.16;;;25.88;45.28
52489;BME280;38399;52.236;104.280;2022-08-14T10:00:21;95097.81;;;25.90;45.67
52489;BME280;38399;52.236;104.280;2022-08-14T10:03:00;95094.31;;;25.93;45.55
52489;BME280;38399;52.236;104.280;2022-08-14T10:05:33;95089.50;;;25.90;46.21
52489;BME280;38399;52.236;104.280;2022-08-14T10:08:01;95087.94;;;25.93;45.98
52489;BME280;38399;52.236;104.280;2022-08-14T10:10:34;95086.00;;;25.93;46.39
52489;BME280;38399;52.236;104.280;2022-08-14T10:13:04;95083.66;;;25.95;46.12
52489;BME280;38399;52.236;104.280;2022-08-14T10:15:35;95089.63;;;25.98;46.04
52489;BME280;38399;52.236;104.280;2022-08-14T10:18:10;95085.56;;;25.91;46.13
52489;BME280;38399;52.236;104.280;2022-08-14T10:23:18;95094.09;;;25.83;46.22
52489;BME280;38399;52.236;104.280;2022-08-14T10:25:47;95076.94;;;25.77;46.41
52489;BME280;38399;52.236;104.280;2022-08-14T10:28:17;95085.75;;;25.83;46.33
52489;BME280;38399;52.236;104.280;2022-08-14T10:30:45;95085.94;;;25.90;46.33
52489;BME280;38399;52.236;104.280;2022-08-14T10:33:28;95089.56;;;25.94;46.88
52489;BME280;38399;52.236;104.280;2022-08-14T10:35:56;95084.91;;;25.98;45.93
52489;BME280;38399;52.236;104.280;2022-08-14T10:38:30;95087.34;;;26.03;46.51
52489;BME280;38399;52.236;104.280;2022-08-14T10:43:41;95087.06;;;26.08;45.98
52489;BME280;38399;52.236;104.280;2022-08-14T10:46:16;95094.97;;;26.06;46.03
52489;BME280;38399;52.236;104.280;2022-08-14T10:48:56;95094.59;;;26.08;46.46
52489;BME280;38399;52.236;104.280;2022-08-14T10:51:25;95097.03;;;26.09;46.13
52489;BME280;38399;52.236;104.280;2022-08-14T10:53:56;95089.56;;;25.94;46.46
52489;BME280;38399;52.236;104.280;2022-08-14T10:56:31;95089.88;;;25.89;47.04
52489;BME280;38399;52.236;104.280;2022-08-14T10:59:03;95088.91;;;25.81;47.28
52489;BME280;38399;52.236;104.280;2022-08-14T11:01:34;95090.38;;;25.75;47.15
52489;BME280;38399;52.236;104.280;2022-08-14T11:04:02;95090.31;;;25.71;47.13
52489;BME280;38399;52.236;104.280;2022-08-14T11:06:28;95088.53;;;25.63;47.10
52489;BME280;38399;52.236;104.280;2022-08-14T11:08:55;95096.34;;;25.57;47.40
52489;BME280;38399;52.236;104.280;2022-08-14T11:11:24;95100.50;;;25.47;47.76
52489;BME280;38399;52.236;104.280;2022-08-14T11:13:55;95110.09;;;25.34;48.46
52489;BME280;38399;52.236;104.280;2022-08-14T11:16:23;95107.81;;;25.20;48.55
52489;BME280;38399;52.236;104.280;2022-08-14T11:18:50;95113.03;;;25.06;48.99
52489;BME280;38399;52.236;104.280;2022-08-14T11:21:19;95114.28;;;24.92;49.08
52489;BME280;38399;52.236;104.280;2022-08-14T11:23:48;95108.41;;;24.78;49.55
52489;BME280;38399;52.236;104.280;2022-08-14T11:26:16;95103.63;;;24.62;50.41
52489;BME280;38399;52.236;104.280;2022-08-14T11:28:48;95101.47;;;24.55;50.27
52489;BME280;38399;52.236;104.280;2022-08-14T11:31:20;95112.38;;;24.48;50.70
52489;BME280;38399;52.236;104.280;2022-08-14T11:33:49;95114.97;;;24.41;50.64
52489;BME280;38399;52.236;104.280;2022-08-14T11:36:24;95120.22;;;24.30;51.30
52489;BME280;38399;52.236;104.280;2022-08-14T11:38:54;95117.25;;;24.23;51.08
52489;BME280;38399;52.236;104.280;2022-08-14T11:41:22;95120.56;;;24.13;51.60
52489;BME280;38399;52.236;104.280;2022-08-14T11:43:51;95120.00;;;24.07;51.68
52489;BME280;38399;52.236;104.280;2022-08-14T11:46:19;95119.91;;;24.03;52.34
52489;BME280;38399;52.236;104.280;2022-08-14T11:48:51;95127.06;;;24.04;52.54
52489;BME280;38399;52.236;104.280;2022-08-14T11:51:20;95124.28;;;24.04;52.63
52489;BME280;38399;52.236;104.280;2022-08-14T11:56:39;95123.53;;;23.79;52.92
52489;BME280;38399;52.236;104.280;2022-08-14T11:59:18;95127.28;;;23.71;53.79
52489;BME280;38399;52.236;104.280;2022-08-14T12:01:46;95126.16;;;23.59;53.47
52489;BME280;38399;52.236;104.280;2022-08-14T12:04:13;95126.03;;;23.56;53.96
52489;BME280;38399;52.236;104.280;2022-08-14T12:06:53;95123.88;;;23.37;54.54
52489;BME280;38399;52.236;104.280;2022-08-14T12:09:34;95114.81;;;23.24;54.68
52489;BME280;38399;52.236;104.280;2022-08-14T12:12:13;95117.84;;;23.19;55.42
52489;BME280;38399;52.236;104.280;2022-08-14T12:14:50;95129.44;;;23.12;55.23
52489;BME280;38399;52.236;104.280;2022-08-14T12:17:31;95127.50;;;23.00;55.06
52489;BME280;38399;52.236;104.280;2022-08-14T12:20:09;95130.25;;;22.88;54.85
52489;BME280;38399;52.236;104.280;2022-08-14T12:22:37;95134.41;;;22.81;55.07
52489;BME280;38399;52.236;104.280;2022-08-14T12:25:06;95134.16;;;22.74;55.18
52489;BME280;38399;52.236;104.280;2022-08-14T12:27:41;95120.47;;;22.65;55.50
52489;BME280;38399;52.236;104.280;2022-08-14T12:30:12;95139.44;;;22.67;55.54
52489;BME280;38399;52.236;104.280;2022-08-14T12:35:06;95146.00;;;22.62;55.37
52489;BME280;38399;52.236;104.280;2022-08-14T12:37:35;95157.41;;;22.61;55.34
52489;BME280;38399;52.236;104.280;2022-08-14T12:40:27;95158.44;;;22.56;55.02
52489;BME280;38399;52.236;104.280;2022-08-14T12:43:01;95153.13;;;22.51;55.48
52489;BME280;38399;52.236;104.280;2022-08-14T12:45:30;95156.44;;;22.44;55.45
52489;BME280;38399;52.236;104.280;2022-08-14T12:48:04;95153.63;;;22.32;55.68
52489;BME280;38399;52.236;104.280;2022-08-14T12:50:40;95150.47;;;22.21;56.09
52489;BME280;38399;52.236;104.280;2022-08-14T12:53:11;95157.72;;;22.13;56.22
52489;BME280;38399;52.236;104.280;2022-08-14T12:55:38;95156.19;;;22.03;56.12
52489;BME280;38399;52.236;104.280;2022-08-14T12:58:06;95160.63;;;21.96;56.28
52489;BME280;38399;52.236;104.280;2022-08-14T13:00:36;95158.88;;;21.91;56.56
52489;BME280;38399;52.236;104.280;2022-08-14T13:03:04;95160.03;;;21.90;56.59
52489;BME280;38399;52.236;104.280;2022-08-14T13:05:32;95165.09;;;21.88;56.70
52489;BME280;38399;52.236;104.280;2022-08-14T13:08:03;95162.53;;;21.83;56.83
52489;BME280;38399;52.236;104.280;2022-08-14T13:10:33;95160.13;;;21.81;56.93
52489;BME280;38399;52.236;104.280;2022-08-14T13:13:00;95166.66;;;21.76;56.79
52489;BME280;38399;52.236;104.280;2022-08-14T13:15:27;95166.84;;;21.71;57.03
52489;BME280;38399;52.236;104.280;2022-08-14T13:17:55;95153.38;;;21.70;56.96
52489;BME280;38399;52.236;104.280;2022-08-14T13:20:24;95159.56;;;21.67;57.09
52489;BME280;38399;52.236;104.280;2022-08-14T13:22:51;95160.13;;;21.60;57.23